sensor_id;sensor_type;location;lat;lon;timestamp;pressure;altitude;pressure_sealevel;temperature;humidity
10732;BME280;5417;42.686;23.244;2023-05-25T00:07:48;94237.81;;;17.37;nan
10732;BME280;5417;42.686;23.244;2023-05-25T00:14:24;94243.06;;;17.37;nan
10732;BME280;5417;42.686;23.244;2023-05-25T00:26:59;94243.59;;;17.24;nan
10732;BME280;5417;42.686;23.244;2023-05-25T00:30:56;94251.16;;;17.27;nan
10732;BME280;5417;42.686;23.244;2023-05-25T00:32:59;94245.38;;;17.32;nan
10732;BME280;5417;42.686;23.244;2023-05-25T00:35:28;94254.94;;;17.25;nan
10732;BME280;5417;42.686;23.244;2023-05-25T01:03:56;94249.75;;;16.84;nan
10732;BME280;5417;42.686;23.244;2023-05-25T01:09:29;94268.00;;;16.86;nan
10732;BME280;5417;42.686;23.244;2023-05-25T01:12:25;94275.38;;;16.82;nan
10732;BME280;5417;42.686;23.244;2023-05-25T01:15:16;94276.53;;;16.80;nan
10732;BME280;5417;42.686;23.244;2023-05-25T01:18:37;94268.16;;;16.76;nan
10732;BME280;5417;42.686;23.244;2023-05-25T01:24:21;94259.97;;;16.71;nan
10732;BME280;5417;42.686;23.244;2023-05-25T01:27:47;94255.69;;;16.70;nan
10732;BME280;5417;42.686;23.244;2023-05-25T01:55:03;94228.88;;;16.58;nan
10732;BME280;5417;42.686;23.244;2023-05-25T02:18:53;94253.84;;;16.46;nan
10732;BME280;5417;42.686;23.244;2023-05-25T02:24:29;94262.03;;;16.35;nan
10732;BME280;5417;42.686;23.244;2023-05-25T02:26:59;94257.94;;;16.40;nan
10732;BME280;5417;42.686;23.244;2023-05-25T02:30:28;94261.72;;;16.38;nan
10732;BME280;5417;42.686;23.244;2023-05-25T02:33:31;94265.00;;;16.32;nan
10732;BME280;5417;42.686;23.244;2023-05-25T02:36:10;94267.94;;;16.29;nan
10732;BME280;5417;42.686;23.244;2023-05-25T02:39:28;94274.34;;;16.26;nan
10732;BME280;5417;42.686;23.244;2023-05-25T02:42:09;94282.38;;;16.25;nan
10732;BME280;5417;42.686;23.244;2023-05-25T02:45:30;94281.91;;;16.21;nan
10732;BME280;5417;42.686;23.244;2023-05-25T02:47:50;94285.34;;;16.22;nan
10732;BME280;5417;42.686;23.244;2023-05-25T02:50:17;94287.63;;;16.25;nan
10732;BME280;5417;42.686;23.244;2023-05-25T02:52:45;94286.16;;;16.30;nan
10732;BME280;5417;42.686;23.244;2023-05-25T02:58:34;94291.09;;;16.33;nan
10732;BME280;5417;42.686;23.244;2023-05-25T03:01:25;94296.50;;;16.32;nan
10732;BME280;5417;42.686;23.244;2023-05-25T03:04:18;94298.47;;;16.30;nan
10732;BME280;5417;42.686;23.244;2023-05-25T03:06:48;94297.81;;;16.28;nan
10732;BME280;5417;42.686;23.244;2023-05-25T03:09:16;94290.59;;;16.22;nan
10732;BME280;5417;42.686;23.244;2023-05-25T03:40:01;94302.75;;;16.39;nan
10732;BME280;5417;42.686;23.244;2023-05-25T03:53:03;94311.19;;;16.83;nan
10732;BME280;5417;42.686;23.244;2023-05-25T03:55:24;94314.47;;;17.01;nan
10732;BME280;5417;42.686;23.244;2023-05-25T04:11:04;94320.03;;;17.15;nan
10732;BME280;5417;42.686;23.244;2023-05-25T04:23:15;94334.13;;;17.54;nan
10732;BME280;5417;42.686;23.244;2023-05-25T04:25:45;94335.72;;;17.63;nan
10732;BME280;5417;42.686;23.244;2023-05-25T04:28:17;94333.44;;;17.69;nan
10732;BME280;5417;42.686;23.244;2023-05-25T04:31:38;94342.81;;;17.79;nan
10732;BME280;5417;42.686;23.244;2023-05-25T04:35:22;94352.59;;;18.02;nan
10732;BME280;5417;42.686;23.244;2023-05-25T04:37:21;94353.84;;;18.22;nan
10732;BME280;5417;42.686;23.244;2023-05-25T04:40:31;94356.59;;;18.28;nan
10732;BME280;5417;42.686;23.244;2023-05-25T04:42:58;94358.75;;;18.25;nan
10732;BME280;5417;42.686;23.244;2023-05-25T04:45:26;94357.59;;;18.19;nan
10732;BME280;5417;42.686;23.244;2023-05-25T04:48:01;94359.00;;;18.07;nan
10732;BME280;5417;42.686;23.244;2023-05-25T04:50:54;94363.59;;;18.05;nan
10732;BME280;5417;42.686;23.244;2023-05-25T04:56:48;94351.47;;;18.58;nan
10732;BME280;5417;42.686;23.244;2023-05-25T04:59:15;94343.44;;;19.43;nan
10732;BME280;5417;42.686;23.244;2023-05-25T05:02:03;94339.88;;;20.54;nan
10732;BME280;5417;42.686;23.244;2023-05-25T05:04:56;94332.78;;;21.67;nan
10732;BME280;5417;42.686;23.244;2023-05-25T05:07:23;94328.97;;;22.59;nan
10732;BME280;5417;42.686;23.244;2023-05-25T05:09:53;94322.78;;;23.33;nan
10732;BME280;5417;42.686;23.244;2023-05-25T05:12:35;94325.22;;;23.80;nan
10732;BME280;5417;42.686;23.244;2023-05-25T05:15:06;94328.63;;;24.14;nan
10732;BME280;5417;42.686;23.244;2023-05-25T05:17:35;94323.28;;;24.27;nan
10732;BME280;5417;42.686;23.244;2023-05-25T05:20:39;94327.44;;;24.10;nan
10732;BME280;5417;42.686;23.244;2023-05-25T05:23:08;94320.09;;;23.85;nan
10732;BME280;5417;42.686;23.244;2023-05-25T05:25:35;94327.50;;;23.70;nan
10732;BME280;5417;42.686;23.244;2023-05-25T05:28:03;94328.94;;;23.53;nan
10732;BME280;5417;42.686;23.244;2023-05-25T05:30:31;94327.06;;;23.27;nan
10732;BME280;5417;42.686;23.244;2023-05-25T05:33:00;94336.66;;;23.08;nan
10732;BME280;5417;42.686;23.244;2023-05-25T05:35:27;94344.13;;;22.72;nan
10732;BME280;5417;42.686;23.244;2023-05-25T05:38:48;94348.97;;;22.55;nan
10732;BME280;5417;42.686;23.244;2023-05-25T05:41:16;94353.53;;;22.26;nan
10732;BME280;5417;42.686;23.244;2023-05-25T05:44:38;94354.38;;;22.33;nan
10732;BME280;5417;42.686;23.244;2023-05-25T05:47:45;94350.78;;;22.48;nan
10732;BME280;5417;42.686;23.244;2023-05-25T05:50:42;94354.56;;;22.32;nan
10732;BME280;5417;42.686;23.244;2023-05-25T05:53:12;94348.66;;;22.30;nan
10732;BME280;5417;42.686;23.244;2023-05-25T06:02:13;94356.16;;;22.74;nan
10732;BME280;5417;42.686;23.244;2023-05-25T06:17:05;94361.81;;;23.19;nan
10732;BME280;5417;42.686;23.244;2023-05-25T06:19:32;94350.97;;;23.34;nan
10732;BME280;5417;42.686;23.244;2023-05-25T06:22:01;94355.09;;;23.43;nan
10732;BME280;5417;42.686;23.244;2023-05-25T06:24:48;94366.34;;;23.45;nan
10732;BME280;5417;42.686;23.244;2023-05-25T06:30:41;94354.47;;;23.94;nan
10732;BME280;5417;42.686;23.244;2023-05-25T06:36:23;94356.91;;;23.29;nan
10732;BME280;5417;42.686;23.244;2023-05-25T06:38:50;94368.78;;;22.65;nan
10732;BME280;5417;42.686;23.244;2023-05-25T06:41:16;94363.00;;;22.42;nan
10732;BME280;5417;42.686;23.244;2023-05-25T06:43:44;94369.22;;;22.21;nan
10732;BME280;5417;42.686;23.244;2023-05-25T06:46:18;94369.75;;;22.03;nan
10732;BME280;5417;42.686;23.244;2023-05-25T06:48:47;94359.66;;;21.64;nan
10732;BME280;5417;42.686;23.244;2023-05-25T06:54:27;94373.38;;;21.74;nan
10732;BME280;5417;42.686;23.244;2023-05-25T06:57:53;94371.50;;;21.68;nan
10732;BME280;5417;42.686;23.244;2023-05-25T07:00:06;94369.53;;;21.77;nan
10732;BME280;5417;42.686;23.244;2023-05-25T07:02:36;94370.34;;;21.78;nan
10732;BME280;5417;42.686;23.244;2023-05-25T07:05:03;94372.50;;;21.95;nan
10732;BME280;5417;42.686;23.244;2023-05-25T07:07:31;94374.19;;;21.75;nan
10732;BME280;5417;42.686;23.244;2023-05-25T07:10:01;94368.75;;;21.83;nan
10732;BME280;5417;42.686;23.244;2023-05-25T07:12:28;94367.69;;;21.78;nan
10732;BME280;5417;42.686;23.244;2023-05-25T07:14:56;94368.03;;;21.68;nan
10732;BME280;5417;42.686;23.244;2023-05-25T07:17:23;94368.72;;;21.49;nan
10732;BME280;5417;42.686;23.244;2023-05-25T07:20:14;94377.25;;;21.23;nan
10732;BME280;5417;42.686;23.244;2023-05-25T07:22:41;94370.72;;;21.04;nan
10732;BME280;5417;42.686;23.244;2023-05-25T07:25:15;94383.78;;;21.05;nan
10732;BME280;5417;42.686;23.244;2023-05-25T07:27:47;94376.28;;;20.88;nan
10732;BME280;5417;42.686;23.244;2023-05-25T07:30:14;94382.53;;;21.01;nan
10732;BME280;5417;42.686;23.244;2023-05-25T07:32:41;94384.50;;;20.78;nan
10732;BME280;5417;42.686;23.244;2023-05-25T07:35:08;94385.88;;;20.74;nan
10732;BME280;5417;42.686;23.244;2023-05-25T07:38:29;94393.25;;;20.42;nan
10732;BME280;5417;42.686;23.244;2023-05-25T07:40:50;94389.25;;;20.46;nan
10732;BME280;5417;42.686;23.244;2023-05-25T07:43:17;94392.22;;;20.58;nan
10732;BME280;5417;42.686;23.244;2023-05-25T07:45:44;94387.50;;;20.75;nan
10732;BME280;5417;42.686;23.244;2023-05-25T07:48:11;94382.31;;;21.03;nan
10732;BME280;5417;42.686;23.244;2023-05-25T07:50:37;94379.94;;;21.29;nan
10732;BME280;5417;42.686;23.244;2023-05-25T07:53:04;94381.63;;;21.58;nan
10732;BME280;5417;42.686;23.244;2023-05-25T07:58:37;94377.44;;;21.98;nan
10732;BME280;5417;42.686;23.244;2023-05-25T08:01:04;94380.91;;;21.99;nan
10732;BME280;5417;42.686;23.244;2023-05-25T08:03:31;94380.75;;;21.79;nan
10732;BME280;5417;42.686;23.244;2023-05-25T08:05:58;94378.97;;;21.58;nan
10732;BME280;5417;42.686;23.244;2023-05-25T08:11:52;94382.81;;;21.13;nan
10732;BME280;5417;42.686;23.244;2023-05-25T08:14:20;94386.47;;;21.12;nan
10732;BME280;5417;42.686;23.244;2023-05-25T08:16:48;94405.63;;;21.14;nan
10732;BME280;5417;42.686;23.244;2023-05-25T08:19:15;94415.59;;;21.12;nan
10732;BME280;5417;42.686;23.244;2023-05-25T08:21:41;94412.09;;;20.54;nan
10732;BME280;5417;42.686;23.244;2023-05-25T08:24:08;94419.50;;;20.29;nan
10732;BME280;5417;42.686;23.244;2023-05-25T08:26:35;94426.75;;;20.27;nan
10732;BME280;5417;42.686;23.244;2023-05-25T08:29:03;94432.88;;;20.28;nan
10732;BME280;5417;42.686;23.244;2023-05-25T08:31:32;94436.44;;;20.20;nan
10732;BME280;5417;42.686;23.244;2023-05-25T08:33:59;94441.16;;;20.10;nan
10732;BME280;5417;42.686;23.244;2023-05-25T08:36:26;94457.75;;;19.89;nan
10732;BME280;5417;42.686;23.244;2023-05-25T08:38:53;94469.22;;;19.81;nan
10732;BME280;5417;42.686;23.244;2023-05-25T08:41:20;94468.75;;;19.78;nan
10732;BME280;5417;42.686;23.244;2023-05-25T08:43:47;94469.44;;;19.72;nan
10732;BME280;5417;42.686;23.244;2023-05-25T08:46:16;94469.50;;;19.64;nan
10732;BME280;5417;42.686;23.244;2023-05-25T08:48:49;94456.41;;;19.47;nan
10732;BME280;5417;42.686;23.244;2023-05-25T08:51:24;94465.03;;;19.41;nan
10732;BME280;5417;42.686;23.244;2023-05-25T08:53:52;94461.00;;;19.53;nan
10732;BME280;5417;42.686;23.244;2023-05-25T08:56:19;94466.28;;;19.53;nan
10732;BME280;5417;42.686;23.244;2023-05-25T08:58:54;94463.66;;;19.53;nan
10732;BME280;5417;42.686;23.244;2023-05-25T09:01:25;94471.91;;;19.50;nan
10732;BME280;5417;42.686;23.244;2023-05-25T09:03:55;94477.06;;;19.44;nan
10732;BME280;5417;42.686;23.244;2023-05-25T09:06:24;94479.47;;;19.31;nan
10732;BME280;5417;42.686;23.244;2023-05-25T09:08:53;94475.03;;;19.31;nan
10732;BME280;5417;42.686;23.244;2023-05-25T09:11:20;94490.16;;;19.37;nan
10732;BME280;5417;42.686;23.244;2023-05-25T09:13:47;94474.56;;;19.28;nan
10732;BME280;5417;42.686;23.244;2023-05-25T09:16:15;94487.78;;;19.19;nan
10732;BME280;5417;42.686;23.244;2023-05-25T09:18:42;94494.09;;;19.10;nan
10732;BME280;5417;42.686;23.244;2023-05-25T09:21:10;94484.66;;;18.93;nan
10732;BME280;5417;42.686;23.244;2023-05-25T09:23:37;94483.00;;;18.92;nan
10732;BME280;5417;42.686;23.244;2023-05-25T09:26:04;94481.50;;;18.98;nan
10732;BME280;5417;42.686;23.244;2023-05-25T09:28:32;94482.25;;;19.06;nan
10732;BME280;5417;42.686;23.244;2023-05-25T09:31:36;94487.00;;;19.11;nan
10732;BME280;5417;42.686;23.244;2023-05-25T09:34:18;94490.81;;;19.08;nan
10732;BME280;5417;42.686;23.244;2023-05-25T09:37:05;94480.22;;;19.16;nan
10732;BME280;5417;42.686;23.244;2023-05-25T09:39:36;94479.88;;;19.19;nan
10732;BME280;5417;42.686;23.244;2023-05-25T09:42:04;94470.13;;;19.20;nan
10732;BME280;5417;42.686;23.244;2023-05-25T09:44:31;94471.28;;;19.26;nan
10732;BME280;5417;42.686;23.244;2023-05-25T09:47:00;94472.97;;;19.41;nan
10732;BME280;5417;42.686;23.244;2023-05-25T09:49:27;94462.50;;;19.48;nan
10732;BME280;5417;42.686;23.244;2023-05-25T09:51:54;94460.59;;;19.65;nan
10732;BME280;5417;42.686;23.244;2023-05-25T09:54:24;94461.47;;;19.80;nan
10732;BME280;5417;42.686;23.244;2023-05-25T09:57:05;94450.34;;;19.84;nan
10732;BME280;5417;42.686;23.244;2023-05-25T09:59:34;94449.31;;;19.71;nan
10732;BME280;5417;42.686;23.244;2023-05-25T10:02:01;94449.09;;;19.58;nan
10732;BME280;5417;42.686;23.244;2023-05-25T10:05:27;94456.84;;;19.36;nan
10732;BME280;5417;42.686;23.244;2023-05-25T10:07:40;94444.44;;;19.14;nan
10732;BME280;5417;42.686;23.244;2023-05-25T10:10:14;94443.91;;;19.18;nan
10732;BME280;5417;42.686;23.244;2023-05-25T10:13:34;94435.78;;;19.28;nan
10732;BME280;5417;42.686;23.244;2023-05-25T10:16:03;94443.56;;;19.44;nan
10732;BME280;5417;42.686;23.244;2023-05-25T10:18:31;94432.25;;;19.59;nan
10732;BME280;5417;42.686;23.244;2023-05-25T10:21:02;94430.72;;;19.64;nan
10732;BME280;5417;42.686;23.244;2023-05-25T10:23:34;94430.03;;;19.85;nan
10732;BME280;5417;42.686;23.244;2023-05-25T10:26:07;94428.59;;;19.97;nan
10732;BME280;5417;42.686;23.244;2023-05-25T10:28:35;94419.03;;;20.11;nan
10732;BME280;5417;42.686;23.244;2023-05-25T10:31:03;94409.00;;;20.21;nan
10732;BME280;5417;42.686;23.244;2023-05-25T10:33:31;94414.56;;;20.11;nan
10732;BME280;5417;42.686;23.244;2023-05-25T10:35:59;94404.34;;;20.23;nan
10732;BME280;5417;42.686;23.244;2023-05-25T10:38:26;94399.88;;;20.38;nan
10732;BME280;5417;42.686;23.244;2023-05-25T10:40:57;94398.88;;;20.10;nan
10732;BME280;5417;42.686;23.244;2023-05-25T10:43:26;94401.63;;;20.02;nan
10732;BME280;5417;42.686;23.244;2023-05-25T10:45:54;94397.97;;;20.03;nan
10732;BME280;5417;42.686;23.244;2023-05-25T10:48:21;94390.31;;;20.08;nan
10732;BME280;5417;42.686;23.244;2023-05-25T10:50:49;94385.31;;;20.13;nan
10732;BME280;5417;42.686;23.244;2023-05-25T10:53:17;94389.59;;;20.14;nan
10732;BME280;5417;42.686;23.244;2023-05-25T10:55:49;94377.19;;;20.14;nan
10732;BME280;5417;42.686;23.244;2023-05-25T10:58:28;94379.28;;;20.19;nan
10732;BME280;5417;42.686;23.244;2023-05-25T11:01:19;94368.63;;;20.27;nan
10732;BME280;5417;42.686;23.244;2023-05-25T11:03:49;94373.44;;;20.38;nan
10732;BME280;5417;42.686;23.244;2023-05-25T11:06:20;94360.97;;;20.47;nan
10732;BME280;5417;42.686;23.244;2023-05-25T11:08:48;94360.72;;;20.42;nan
10732;BME280;5417;42.686;23.244;2023-05-25T11:11:15;94359.59;;;20.36;nan
10732;BME280;5417;42.686;23.244;2023-05-25T11:13:45;94361.69;;;20.26;nan
10732;BME280;5417;42.686;23.244;2023-05-25T11:16:16;94362.44;;;20.20;nan
10732;BME280;5417;42.686;23.244;2023-05-25T11:18:45;94366.34;;;20.24;nan
10732;BME280;5417;42.686;23.244;2023-05-25T11:21:15;94359.22;;;20.25;nan
10732;BME280;5417;42.686;23.244;2023-05-25T11:23:55;94357.25;;;20.12;nan
10732;BME280;5417;42.686;23.244;2023-05-25T11:26:24;94365.09;;;19.91;nan
10732;BME280;5417;42.686;23.244;2023-05-25T11:28:53;94375.66;;;19.91;nan
10732;BME280;5417;42.686;23.244;2023-05-25T11:31:26;94369.84;;;19.95;nan
10732;BME280;5417;42.686;23.244;2023-05-25T11:33:56;94377.03;;;20.01;nan
10732;BME280;5417;42.686;23.244;2023-05-25T11:36:23;94378.03;;;20.00;nan
10732;BME280;5417;42.686;23.244;2023-05-25T11:38:51;94374.84;;;19.90;nan
10732;BME280;5417;42.686;23.244;2023-05-25T11:41:19;94367.19;;;19.80;nan
10732;BME280;5417;42.686;23.244;2023-05-25T11:43:46;94365.44;;;19.73;nan
10732;BME280;5417;42.686;23.244;2023-05-25T11:46:15;94371.81;;;19.64;nan
10732;BME280;5417;42.686;23.244;2023-05-25T11:48:45;94368.63;;;19.68;nan
10732;BME280;5417;42.686;23.244;2023-05-25T11:51:12;94357.31;;;19.60;nan
10732;BME280;5417;42.686;23.244;2023-05-25T11:53:43;94370.91;;;19.71;nan
10732;BME280;5417;42.686;23.244;2023-05-25T11:56:11;94368.91;;;19.73;nan
10732;BME280;5417;42.686;23.244;2023-05-25T11:58:38;94371.38;;;19.90;nan
10732;BME280;5417;42.686;23.244;2023-05-25T12:01:13;94364.44;;;20.03;nan
10732;BME280;5417;42.686;23.244;2023-05-25T12:03:42;94362.53;;;20.12;nan
10732;BME280;5417;42.686;23.244;2023-05-25T12:06:22;94356.78;;;20.08;nan
10732;BME280;5417;42.686;23.244;2023-05-25T12:08:49;94352.59;;;20.14;nan
10732;BME280;5417;42.686;23.244;2023-05-25T12:11:16;94354.75;;;20.25;nan
10732;BME280;5417;42.686;23.244;2023-05-25T12:13:43;94358.16;;;20.19;nan
10732;BME280;5417;42.686;23.244;2023-05-25T12:16:10;94357.41;;;20.25;nan
10732;BME280;5417;42.686;23.244;2023-05-25T12:18:37;94348.75;;;20.31;nan
10732;BME280;5417;42.686;23.244;2023-05-25T12:21:05;94347.50;;;20.42;nan
10732;BME280;5417;42.686;23.244;2023-05-25T12:23:35;94337.53;;;20.44;nan
10732;BME280;5417;42.686;23.244;2023-05-25T12:26:10;94336.44;;;20.38;nan
10732;BME280;5417;42.686;23.244;2023-05-25T12:32:01;94319.13;;;20.36;nan
10732;BME280;5417;42.686;23.244;2023-05-25T12:34:29;94318.59;;;20.40;nan
10732;BME280;5417;42.686;23.244;2023-05-25T12:36:57;94319.13;;;20.36;nan
10732;BME280;5417;42.686;23.244;2023-05-25T12:39:32;94321.78;;;20.36;nan
10732;BME280;5417;42.686;23.244;2023-05-25T12:42:03;94316.09;;;20.39;nan
10732;BME280;5417;42.686;23.244;2023-05-25T12:44:32;94316.28;;;20.52;nan
10732;BME280;5417;42.686;23.244;2023-05-25T12:47:10;94314.53;;;20.59;nan
10732;BME280;5417;42.686;23.244;2023-05-25T12:49:37;94308.03;;;20.62;nan
10732;BME280;5417;42.686;23.244;2023-05-25T12:52:07;94302.19;;;20.66;nan
10732;BME280;5417;42.686;23.244;2023-05-25T12:54:40;94296.44;;;20.63;nan
10732;BME280;5417;42.686;23.244;2023-05-25T12:57:41;94289.59;;;20.68;nan
10732;BME280;5417;42.686;23.244;2023-05-25T13:00:12;94286.56;;;20.71;nan
10732;BME280;5417;42.686;23.244;2023-05-25T13:02:41;94286.94;;;20.68;nan
10732;BME280;5417;42.686;23.244;2023-05-25T13:05:16;94281.94;;;20.80;nan
10732;BME280;5417;42.686;23.244;2023-05-25T13:07:44;94282.91;;;20.94;nan
10732;BME280;5417;42.686;23.244;2023-05-25T13:10:11;94277.09;;;21.05;nan
10732;BME280;5417;42.686;23.244;2023-05-25T13:12:39;94267.31;;;21.05;nan
10732;BME280;5417;42.686;23.244;2023-05-25T13:15:06;94261.66;;;21.08;nan
10732;BME280;5417;42.686;23.244;2023-05-25T13:17:33;94255.50;;;21.01;nan
10732;BME280;5417;42.686;23.244;2023-05-25T13:20:00;94254.19;;;20.91;nan
10732;BME280;5417;42.686;23.244;2023-05-25T13:22:28;94262.41;;;21.02;nan
10732;BME280;5417;42.686;23.244;2023-05-25T13:25:15;94255.31;;;21.03;nan
10732;BME280;5417;42.686;23.244;2023-05-25T13:27:43;94253.09;;;21.06;nan
10732;BME280;5417;42.686;23.244;2023-05-25T13:30:11;94256.56;;;21.07;nan
10732;BME280;5417;42.686;23.244;2023-05-25T13:32:38;94254.56;;;21.16;nan
10732;BME280;5417;42.686;23.244;2023-05-25T13:35:06;94253.81;;;21.22;nan
10732;BME280;5417;42.686;23.244;2023-05-25T13:37:36;94252.97;;;21.21;nan
10732;BME280;5417;42.686;23.244;2023-05-25T13:40:04;94249.97;;;21.24;nan
10732;BME280;5417;42.686;23.244;2023-05-25T13:42:33;94254.00;;;21.41;nan
10732;BME280;5417;42.686;23.244;2023-05-25T13:44:59;94250.59;;;21.54;nan
10732;BME280;5417;42.686;23.244;2023-05-25T13:47:27;94259.38;;;21.61;nan
10732;BME280;5417;42.686;23.244;2023-05-25T13:49:53;94257.34;;;21.63;nan
10732;BME280;5417;42.686;23.244;2023-05-25T13:52:20;94256.16;;;21.66;nan
10732;BME280;5417;42.686;23.244;2023-05-25T13:54:48;94261.81;;;21.56;nan
10732;BME280;5417;42.686;23.244;2023-05-25T13:57:15;94264.03;;;21.53;nan
10732;BME280;5417;42.686;23.244;2023-05-25T13:59:43;94259.34;;;21.55;nan
10732;BME280;5417;42.686;23.244;2023-05-25T14:02:10;94262.66;;;21.63;nan
10732;BME280;5417;42.686;23.244;2023-05-25T14:04:37;94261.88;;;21.69;nan
10732;BME280;5417;42.686;23.244;2023-05-25T14:07:27;94265.59;;;21.82;nan
10732;BME280;5417;42.686;23.244;2023-05-25T14:09:54;94261.81;;;21.97;nan
10732;BME280;5417;42.686;23.244;2023-05-25T14:12:21;94259.22;;;22.04;nan
10732;BME280;5417;42.686;23.244;2023-05-25T14:14:49;94263.88;;;22.02;nan
10732;BME280;5417;42.686;23.244;2023-05-25T14:17:16;94266.72;;;22.00;nan
10732;BME280;5417;42.686;23.244;2023-05-25T14:19:43;94263.84;;;21.95;nan
10732;BME280;5417;42.686;23.244;2023-05-25T14:22:10;94253.78;;;21.84;nan
10732;BME280;5417;42.686;23.244;2023-05-25T14:24:37;94254.84;;;21.90;nan
10732;BME280;5417;42.686;23.244;2023-05-25T14:28:32;94247.94;;;21.95;nan
10732;BME280;5417;42.686;23.244;2023-05-25T14:30:51;94236.00;;;22.13;nan
10732;BME280;5417;42.686;23.244;2023-05-25T14:33:18;94233.34;;;22.06;nan
10732;BME280;5417;42.686;23.244;2023-05-25T14:35:44;94235.72;;;21.94;nan
10732;BME280;5417;42.686;23.244;2023-05-25T14:38:11;94226.31;;;21.92;nan
10732;BME280;5417;42.686;23.244;2023-05-25T14:40:38;94238.56;;;21.93;nan
10732;BME280;5417;42.686;23.244;2023-05-25T14:43:08;94231.03;;;21.96;nan
10732;BME280;5417;42.686;23.244;2023-05-25T14:45:35;94223.75;;;22.05;nan
10732;BME280;5417;42.686;23.244;2023-05-25T14:48:23;94220.47;;;22.03;nan
10732;BME280;5417;42.686;23.244;2023-05-25T14:51:09;94223.38;;;22.15;nan
10732;BME280;5417;42.686;23.244;2023-05-25T14:53:54;94217.88;;;22.23;nan
10732;BME280;5417;42.686;23.244;2023-05-25T14:56:34;94219.09;;;22.20;nan
10732;BME280;5417;42.686;23.244;2023-05-25T14:59:01;94224.19;;;22.22;nan
10732;BME280;5417;42.686;23.244;2023-05-25T15:01:29;94221.19;;;22.38;nan
10732;BME280;5417;42.686;23.244;2023-05-25T15:04:00;94220.00;;;22.47;nan
10732;BME280;5417;42.686;23.244;2023-05-25T15:06:27;94225.91;;;22.43;nan
10732;BME280;5417;42.686;23.244;2023-05-25T15:08:54;94204.28;;;22.52;nan
10732;BME280;5417;42.686;23.244;2023-05-25T15:12:15;94207.13;;;22.51;nan
10732;BME280;5417;42.686;23.244;2023-05-25T15:14:36;94197.34;;;22.58;nan
10732;BME280;5417;42.686;23.244;2023-05-25T15:17:05;94196.94;;;22.54;nan
10732;BME280;5417;42.686;23.244;2023-05-25T15:19:33;94205.72;;;22.55;nan
10732;BME280;5417;42.686;23.244;2023-05-25T15:22:00;94207.75;;;22.46;nan
10732;BME280;5417;42.686;23.244;2023-05-25T15:24:27;94204.47;;;22.38;nan
10732;BME280;5417;42.686;23.244;2023-05-25T15:26:54;94200.56;;;22.27;nan
10732;BME280;5417;42.686;23.244;2023-05-25T15:29:20;94208.28;;;22.22;nan
10732;BME280;5417;42.686;23.244;2023-05-25T15:41:31;94203.00;;;22.35;nan
10732;BME280;5417;42.686;23.244;2023-05-25T15:57:11;94216.66;;;22.19;nan
10732;BME280;5417;42.686;23.244;2023-05-25T16:06:14;94233.72;;;21.62;nan
10732;BME280;5417;42.686;23.244;2023-05-25T16:09:40;94250.00;;;21.59;nan
10732;BME280;5417;42.686;23.244;2023-05-25T16:11:50;94253.69;;;21.30;nan
10732;BME280;5417;42.686;23.244;2023-05-25T16:14:36;94254.44;;;20.96;nan
10732;BME280;5417;42.686;23.244;2023-05-25T16:17:03;94251.03;;;20.80;nan
10732;BME280;5417;42.686;23.244;2023-05-25T16:19:32;94256.00;;;20.69;nan
10732;BME280;5417;42.686;23.244;2023-05-25T16:30:12;94287.72;;;20.11;nan
10732;BME280;5417;42.686;23.244;2023-05-25T16:35:54;94298.44;;;19.21;nan
10732;BME280;5417;42.686;23.244;2023-05-25T16:38:20;94306.66;;;19.27;nan
10732;BME280;5417;42.686;23.244;2023-05-25T16:40:47;94306.25;;;19.15;nan
10732;BME280;5417;42.686;23.244;2023-05-25T16:43:14;94301.69;;;19.09;nan
10732;BME280;5417;42.686;23.244;2023-05-25T16:45:41;94290.94;;;19.10;nan
10732;BME280;5417;42.686;23.244;2023-05-25T16:48:46;94286.31;;;19.12;nan
10732;BME280;5417;42.686;23.244;2023-05-25T16:50:57;94302.00;;;19.29;nan
10732;BME280;5417;42.686;23.244;2023-05-25T16:53:26;94306.66;;;19.41;nan
10732;BME280;5417;42.686;23.244;2023-05-25T16:55:53;94325.97;;;19.42;nan
10732;BME280;5417;42.686;23.244;2023-05-25T16:58:20;94327.50;;;19.36;nan
10732;BME280;5417;42.686;23.244;2023-05-25T17:00:48;94340.69;;;19.36;nan
10732;BME280;5417;42.686;23.244;2023-05-25T17:03:15;94342.09;;;19.24;nan
10732;BME280;5417;42.686;23.244;2023-05-25T17:05:42;94342.06;;;19.09;nan
10732;BME280;5417;42.686;23.244;2023-05-25T17:08:10;94356.16;;;19.02;nan
10732;BME280;5417;42.686;23.244;2023-05-25T17:10:37;94349.59;;;18.98;nan
10732;BME280;5417;42.686;23.244;2023-05-25T17:13:04;94352.06;;;18.99;nan
10732;BME280;5417;42.686;23.244;2023-05-25T17:15:44;94352.06;;;18.99;nan
10732;BME280;5417;42.686;23.244;2023-05-25T17:18:13;94350.25;;;19.00;nan
10732;BME280;5417;42.686;23.244;2023-05-25T17:20:40;94330.13;;;18.99;nan
10732;BME280;5417;42.686;23.244;2023-05-25T17:23:32;94328.13;;;19.01;nan
10732;BME280;5417;42.686;23.244;2023-05-25T17:25:59;94327.31;;;19.00;nan
10732;BME280;5417;42.686;23.244;2023-05-25T17:28:26;94319.41;;;19.00;nan
10732;BME280;5417;42.686;23.244;2023-05-25T17:30:53;94306.41;;;18.99;nan
10732;BME280;5417;42.686;23.244;2023-05-25T17:33:20;94307.31;;;19.06;nan
10732;BME280;5417;42.686;23.244;2023-05-25T17:36:41;94306.72;;;19.18;nan
10732;BME280;5417;42.686;23.244;2023-05-25T17:39:04;94312.44;;;19.22;nan
10732;BME280;5417;42.686;23.244;2023-05-25T17:41:31;94306.97;;;19.23;nan
10732;BME280;5417;42.686;23.244;2023-05-25T17:43:58;94325.13;;;19.27;nan
10732;BME280;5417;42.686;23.244;2023-05-25T17:46:25;94321.34;;;19.21;nan
10732;BME280;5417;42.686;23.244;2023-05-25T17:48:52;94304.06;;;19.18;nan
10732;BME280;5417;42.686;23.244;2023-05-25T17:51:19;94305.25;;;19.16;nan
10732;BME280;5417;42.686;23.244;2023-05-25T17:53:46;94313.69;;;19.11;nan
10732;BME280;5417;42.686;23.244;2023-05-25T17:59:31;94324.31;;;19.03;nan
10732;BME280;5417;42.686;23.244;2023-05-25T18:01:58;94321.88;;;19.02;nan
10732;BME280;5417;42.686;23.244;2023-05-25T18:04:24;94316.31;;;18.97;nan
10732;BME280;5417;42.686;23.244;2023-05-25T18:06:51;94321.59;;;18.97;nan
10732;BME280;5417;42.686;23.244;2023-05-25T18:09:18;94333.31;;;18.94;nan